createdAt,value
2018-10-19T00:01:04.076Z,16.13
2018-10-19T00:03:32.754Z,16.43
2018-10-19T00:06:01.639Z,15.53
2018-10-19T00:08:30.506Z,15.50
2018-10-19T00:10:59.145Z,17.00
2018-10-19T00:13:27.966Z,16.70
2018-10-19T00:15:56.751Z,16.30
2018-10-19T00:18:25.598Z,14.23
2018-10-19T00:20:54.365Z,15.07
2018-10-19T00:23:23.187Z,16.20
2018-10-19T00:25:51.966Z,14.33
2018-10-19T00:28:20.542Z,13.10
2018-10-19T00:30:49.157Z,13.50
2018-10-19T00:33:17.791Z,13.50
2018-10-19T00:35:46.937Z,13.33
2018-10-19T00:38:16.065Z,12.50
2018-10-19T00:40:45.595Z,11.63
2018-10-19T00:43:14.445Z,12.17
2018-10-19T00:45:45.433Z,11.70
2018-10-19T00:48:24.811Z,12.93
2018-10-19T00:50:53.653Z,12.80
2018-10-19T00:53:22.767Z,12.80
2018-10-19T00:55:51.818Z,13.20
2018-10-19T00:58:20.658Z,12.53
2018-10-19T01:00:49.546Z,11.63
2018-10-19T01:03:18.715Z,11.00
2018-10-19T01:05:47.911Z,11.47
2018-10-19T01:08:16.603Z,10.90
2018-10-19T01:10:45.393Z,11.70
2018-10-19T01:13:14.198Z,11.73
2018-10-19T01:15:43.039Z,11.00
2018-10-19T01:18:11.902Z,11.63
2018-10-19T01:20:40.537Z,11.13
2018-10-19T01:23:09.968Z,10.40
2018-10-19T01:25:42.484Z,10.43
2018-10-19T01:28:16.018Z,10.20
2018-10-19T01:30:44.855Z,11.93
2018-10-19T01:33:13.710Z,11.17
2018-10-19T01:35:42.928Z,11.27
2018-10-19T01:38:11.783Z,11.87
2018-10-19T01:40:40.659Z,10.40
2018-10-19T01:43:09.394Z,12.37
2018-10-19T01:45:40.078Z,12.47
2018-10-19T01:48:09.066Z,12.83
2018-10-19T01:50:37.845Z,12.83
2018-10-19T01:53:06.670Z,12.30
2018-10-19T01:55:35.300Z,11.13
2018-10-19T01:58:04.155Z,11.90
2018-10-19T02:00:32.754Z,11.43
2018-10-19T02:03:02.082Z,13.30
2018-10-19T02:05:30.867Z,12.37
2018-10-19T02:07:59.723Z,13.57
2018-10-19T02:10:28.302Z,13.63
2018-10-19T02:12:57.081Z,12.27
2018-10-19T02:15:26.394Z,12.83
2018-10-19T02:17:54.930Z,15.38
2018-10-19T02:20:23.538Z,13.30
2018-10-19T02:22:52.201Z,13.03
2018-10-19T02:25:20.786Z,11.83
2018-10-19T02:27:49.396Z,12.97
2018-10-19T02:30:18.148Z,13.57
2018-10-19T02:32:51.093Z,13.60
2018-10-19T02:35:19.944Z,12.93
2018-10-19T02:37:51.918Z,12.13
2018-10-19T02:40:29.668Z,13.60
2018-10-19T02:42:58.298Z,13.83
2018-10-19T02:45:26.899Z,12.97
2018-10-19T02:47:55.659Z,13.70
2018-10-19T02:50:24.299Z,15.27
2018-10-19T02:52:53.236Z,14.60
2018-10-19T02:55:26.001Z,15.53
2018-10-19T02:57:54.626Z,16.50
2018-10-19T03:00:30.191Z,17.67
2018-10-19T03:02:59.193Z,18.97
2018-10-19T03:05:27.803Z,16.13
2018-10-19T03:07:56.385Z,19.07
2018-10-19T03:10:24.977Z,18.50
2018-10-19T03:12:53.722Z,17.80
2018-10-19T03:15:22.503Z,17.50
2018-10-19T03:17:51.309Z,18.17
2018-10-19T03:20:20.129Z,17.17
2018-10-19T03:22:48.838Z,20.43
2018-10-19T03:25:17.667Z,18.67
2018-10-19T03:27:47.845Z,18.10
2018-10-19T03:30:16.519Z,16.80
2018-10-19T03:32:51.340Z,17.20
2018-10-19T03:35:20.190Z,16.90
2018-10-19T03:37:48.911Z,15.50
2018-10-19T03:40:17.632Z,15.40
2018-10-19T03:42:46.311Z,14.80
2018-10-19T03:45:16.845Z,14.93
2018-10-19T03:47:47.519Z,16.07
2018-10-19T03:50:17.989Z,16.00
2018-10-19T03:52:46.905Z,15.20
2018-10-19T03:55:15.696Z,15.00
2018-10-19T03:57:44.446Z,14.53
2018-10-19T04:00:13.054Z,14.03
2018-10-19T04:02:41.817Z,14.33
2018-10-19T04:07:44.988Z,12.53
2018-10-19T04:10:13.458Z,14.07
2018-10-19T04:12:41.937Z,13.17
2018-10-19T04:15:10.747Z,13.10
2018-10-19T04:17:39.190Z,12.90
2018-10-19T04:20:07.684Z,13.50
2018-10-19T04:22:36.176Z,15.47
2018-10-19T04:25:05.018Z,14.80
2018-10-19T04:27:33.496Z,14.23
2018-10-19T04:30:01.910Z,13.70
2018-10-19T04:32:30.359Z,13.30
2018-10-19T04:34:58.836Z,14.50
2018-10-19T04:37:27.242Z,13.80
2018-10-19T04:39:55.629Z,13.77
2018-10-19T04:42:24.227Z,13.93
2018-10-19T04:44:52.706Z,12.83
2018-10-19T04:47:21.158Z,15.00
2018-10-19T04:49:49.600Z,15.97
2018-10-19T04:52:18.106Z,14.70
2018-10-19T04:54:46.557Z,14.83
2018-10-19T04:57:15.028Z,15.67
2018-10-19T04:59:43.441Z,15.70
2018-10-19T05:02:12.017Z,16.40
2018-10-19T05:04:40.538Z,15.03
2018-10-19T05:07:08.975Z,15.93
2018-10-19T05:09:38.105Z,15.70
2018-10-19T05:12:06.579Z,15.17
2018-10-19T05:14:35.007Z,15.63
2018-10-19T05:17:03.459Z,15.57
2018-10-19T05:19:31.848Z,16.37
2018-10-19T05:22:00.405Z,16.00
2018-10-19T05:24:28.878Z,16.40
2018-10-19T05:26:57.309Z,17.17
2018-10-19T05:29:25.794Z,15.43
2018-10-19T05:31:54.246Z,17.43
2018-10-19T05:34:22.650Z,16.47
2018-10-19T05:36:51.069Z,17.40
2018-10-19T05:39:19.493Z,17.70
2018-10-19T05:41:47.944Z,17.97
2018-10-19T05:44:16.374Z,18.07
2018-10-19T05:46:44.802Z,18.00
2018-10-19T05:49:13.228Z,18.00
2018-10-19T05:51:41.635Z,18.67
2018-10-19T05:54:10.096Z,17.23
2018-10-19T05:56:38.505Z,19.07
2018-10-19T05:59:07.477Z,18.73
2018-10-19T06:01:35.967Z,17.10
2018-10-19T06:04:04.431Z,17.80
2018-10-19T06:06:32.834Z,18.10
2018-10-19T06:09:01.323Z,19.33
2018-10-19T06:11:29.730Z,21.03
2018-10-19T06:13:58.175Z,19.57
2018-10-19T06:16:26.592Z,20.17
2018-10-19T06:18:55.014Z,20.07
2018-10-19T06:21:23.413Z,19.57
2018-10-19T06:23:51.986Z,19.47
2018-10-19T06:26:20.462Z,20.73
2018-10-19T06:28:48.888Z,19.60
2018-10-19T06:31:17.626Z,22.30
2018-10-19T06:33:46.190Z,20.33
2018-10-19T06:36:14.553Z,21.23
2018-10-19T06:38:43.030Z,20.17
2018-10-19T06:41:11.466Z,20.53
2018-10-19T06:43:39.986Z,21.70
2018-10-19T06:46:08.405Z,22.23
2018-10-19T06:48:36.867Z,22.53
2018-10-19T06:51:05.358Z,23.17
2018-10-19T06:53:33.877Z,23.67
2018-10-19T06:56:02.377Z,23.33
2018-10-19T06:58:30.893Z,22.40
2018-10-19T07:00:59.686Z,24.40
2018-10-19T07:03:28.202Z,24.20
2018-10-19T07:05:56.634Z,25.93
2018-10-19T07:08:25.163Z,24.20
2018-10-19T07:10:53.581Z,24.80
2018-10-19T07:13:22.042Z,26.20
2018-10-19T07:15:50.527Z,23.90
2018-10-19T07:18:18.989Z,25.47
2018-10-19T07:20:47.654Z,25.97
2018-10-19T07:23:17.159Z,27.10
2018-10-19T07:25:49.971Z,26.43
2018-10-19T07:28:18.698Z,23.27
2018-10-19T07:30:47.109Z,26.87
2018-10-19T07:33:15.571Z,24.03
2018-10-19T07:35:43.965Z,24.83
2018-10-19T07:38:12.554Z,24.57
2018-10-19T07:40:41.017Z,24.17
2018-10-19T07:43:09.521Z,24.43
2018-10-19T07:45:38.056Z,24.40
2018-10-19T07:48:07.367Z,23.20
2018-10-19T07:50:49.461Z,23.27
2018-10-19T07:53:17.899Z,22.33
2018-10-19T07:55:46.397Z,22.67
2018-10-19T07:58:15.485Z,22.33
2018-10-19T08:00:44.144Z,22.60
2018-10-19T08:03:12.594Z,22.00
2018-10-19T08:05:41.676Z,24.17
2018-10-19T08:08:10.311Z,24.40
2018-10-19T08:10:38.890Z,24.13
2018-10-19T08:13:07.558Z,24.27
2018-10-19T08:15:36.970Z,24.63
2018-10-19T08:18:05.694Z,23.00
2018-10-19T08:20:34.120Z,22.03
2018-10-19T08:23:02.698Z,22.63
2018-10-19T08:25:31.318Z,23.17
2018-10-19T08:27:59.942Z,23.97
2018-10-19T08:30:28.482Z,23.70
2018-10-19T08:33:00.382Z,22.87
2018-10-19T08:35:28.786Z,23.33
2018-10-19T08:37:57.378Z,23.13
2018-10-19T08:40:26.090Z,21.60
2018-10-19T08:42:54.696Z,23.10
2018-10-19T08:45:23.234Z,21.13
2018-10-19T08:47:51.741Z,21.53
2018-10-19T08:50:20.135Z,20.20
2018-10-19T08:52:49.656Z,20.70
2018-10-19T08:55:18.082Z,21.00
2018-10-19T08:57:46.598Z,20.17
2018-10-19T09:00:15.019Z,20.20
2018-10-19T09:02:43.416Z,21.30
2018-10-19T09:05:11.927Z,20.60
2018-10-19T09:07:40.368Z,21.77
2018-10-19T09:10:09.133Z,21.90
2018-10-19T09:12:37.919Z,20.57
2018-10-19T09:15:07.116Z,22.27
2018-10-19T09:17:35.575Z,21.37
2018-10-19T09:20:05.757Z,22.70
2018-10-19T09:22:34.861Z,22.90
2018-10-19T09:25:03.897Z,21.83
2018-10-19T09:27:32.551Z,22.10
2018-10-19T09:30:01.930Z,22.80
2018-10-19T09:32:30.522Z,23.20
2018-10-19T09:34:59.238Z,22.47
2018-10-19T09:37:28.026Z,22.30
2018-10-19T09:39:59.327Z,20.77
2018-10-19T09:42:28.062Z,22.77
2018-10-19T09:47:49.861Z,20.33
2018-10-19T09:50:19.678Z,22.33
2018-10-19T09:52:48.161Z,22.57
2018-10-19T09:55:16.742Z,22.37
2018-10-19T09:57:45.291Z,21.60
2018-10-19T10:00:24.257Z,21.53
2018-10-19T10:02:52.776Z,20.70
2018-10-19T10:05:21.239Z,19.90
2018-10-19T10:07:50.913Z,19.93
2018-10-19T10:10:19.385Z,19.37
2018-10-19T10:12:47.827Z,19.73
2018-10-19T10:15:16.717Z,21.10
2018-10-19T10:17:45.918Z,20.43
2018-10-19T10:20:15.937Z,21.40
2018-10-19T10:22:44.395Z,22.80
2018-10-19T10:25:12.932Z,21.23
2018-10-19T10:27:41.770Z,23.30
2018-10-19T10:30:12.684Z,21.87
2018-10-19T10:33:02.532Z,20.70
2018-10-19T10:39:17.821Z,21.13
2018-10-19T10:47:22.093Z,20.43
2018-10-19T10:49:50.777Z,21.50
2018-10-19T10:52:19.495Z,22.13
2018-10-19T10:54:48.635Z,22.60
2018-10-19T10:57:17.223Z,22.07
2018-10-19T10:59:46.358Z,21.97
2018-10-19T11:02:15.399Z,21.67
2018-10-19T11:04:44.194Z,21.20
2018-10-19T11:07:12.968Z,20.83
2018-10-19T11:09:41.506Z,20.83
2018-10-19T11:12:11.000Z,20.50
2018-10-19T11:14:40.008Z,21.57
2018-10-19T11:17:08.759Z,20.13
2018-10-19T11:19:37.485Z,20.00
2018-10-19T11:22:06.698Z,19.47
2018-10-19T11:24:35.414Z,21.33
2018-10-19T11:27:04.412Z,20.30
2018-10-19T11:29:33.159Z,20.33
2018-10-19T11:32:02.130Z,20.67
2018-10-19T11:34:31.150Z,19.97
2018-10-19T11:36:59.871Z,20.93
2018-10-19T11:39:28.537Z,19.70
2018-10-19T11:41:57.215Z,19.63
2018-10-19T11:44:26.433Z,19.83
2018-10-19T11:46:59.214Z,19.70
2018-10-19T11:49:28.452Z,18.93
2018-10-19T11:51:57.450Z,19.30
2018-10-19T11:54:26.041Z,18.90
2018-10-19T11:56:54.702Z,19.47
2018-10-19T11:59:23.486Z,19.63
2018-10-19T12:01:52.211Z,19.17
2018-10-19T12:04:20.884Z,18.50
2018-10-19T12:06:50.099Z,19.17
2018-10-19T12:09:18.871Z,18.60
2018-10-19T12:11:47.524Z,19.03
2018-10-19T12:14:16.283Z,18.83
2018-10-19T12:16:54.631Z,19.10
2018-10-19T12:19:23.645Z,17.60
2018-10-19T12:21:53.036Z,18.33
2018-10-19T12:24:22.024Z,17.90
2018-10-19T12:26:50.930Z,17.37
2018-10-19T12:29:19.597Z,18.37
2018-10-19T12:31:48.319Z,17.87
2018-10-19T12:34:17.554Z,18.07
2018-10-19T12:36:46.576Z,17.77
2018-10-19T12:39:15.884Z,17.10
2018-10-19T12:41:44.811Z,16.70
2018-10-19T12:44:13.827Z,16.07
2018-10-19T12:46:53.632Z,16.20
2018-10-19T12:49:24.200Z,17.63
2018-10-19T12:51:52.962Z,16.37
2018-10-19T12:54:22.111Z,15.87
2018-10-19T12:56:50.870Z,14.67
2018-10-19T12:59:19.591Z,15.60
2018-10-19T13:01:48.275Z,18.07
2018-10-19T13:04:26.417Z,16.10
2018-10-19T13:06:55.408Z,16.33
2018-10-19T13:09:38.415Z,16.30
2018-10-19T13:12:07.832Z,15.03
2018-10-19T13:14:37.077Z,14.83
2018-10-19T13:17:16.286Z,14.77
2018-10-19T13:19:58.232Z,14.43
2018-10-19T13:22:34.337Z,14.90
2018-10-19T13:25:06.010Z,14.47
2018-10-19T13:27:35.457Z,14.93
2018-10-19T13:30:05.237Z,14.80
2018-10-19T13:32:33.665Z,16.13
2018-10-19T13:35:02.153Z,14.90
2018-10-19T13:37:30.678Z,15.20
2018-10-19T13:39:59.137Z,16.93
2018-10-19T13:42:27.599Z,17.05
2018-10-19T13:44:56.171Z,16.83
2018-10-19T13:47:29.659Z,15.90
2018-10-19T13:49:58.142Z,16.10
2018-10-19T13:52:26.766Z,16.10
2018-10-19T13:54:55.162Z,15.57
2018-10-19T13:57:23.617Z,16.07
2018-10-19T13:59:52.604Z,14.95
2018-10-19T14:02:22.595Z,16.12
2018-10-19T14:04:51.590Z,15.38
2018-10-19T14:07:20.066Z,15.95
2018-10-19T14:09:48.582Z,14.70
2018-10-19T14:12:17.078Z,14.27
2018-10-19T14:14:45.686Z,15.90
2018-10-19T14:17:14.270Z,16.47
2018-10-19T14:19:42.601Z,16.30
2018-10-19T14:22:11.621Z,15.50
2018-10-19T14:24:40.078Z,16.10
2018-10-19T14:27:08.555Z,14.50
2018-10-19T14:29:36.964Z,15.87
2018-10-19T14:32:05.570Z,15.00
2018-10-19T14:34:34.060Z,14.35
2018-10-19T14:37:02.485Z,14.95
2018-10-19T14:39:30.965Z,14.28
2018-10-19T14:41:59.451Z,14.35
2018-10-19T14:44:28.129Z,15.03
2018-10-19T14:46:56.668Z,15.07
2018-10-19T14:49:25.100Z,15.07
2018-10-19T14:51:53.600Z,15.60
2018-10-19T14:54:22.083Z,14.70
2018-10-19T14:56:50.502Z,15.57
2018-10-19T14:59:18.982Z,16.53
2018-10-19T15:01:47.426Z,16.00
2018-10-19T15:04:15.965Z,15.47
2018-10-19T15:06:44.426Z,15.60
2018-10-19T15:09:13.226Z,16.37
2018-10-19T15:11:42.557Z,15.07
2018-10-19T15:14:10.976Z,15.40
2018-10-19T15:16:39.783Z,16.63
2018-10-19T15:19:08.254Z,16.20
2018-10-19T15:21:36.733Z,16.20
2018-10-19T15:24:05.358Z,16.03
2018-10-19T15:26:34.826Z,16.67
2018-10-19T15:29:03.387Z,16.50
2018-10-19T15:31:31.709Z,16.60
2018-10-19T15:34:00.245Z,16.43
2018-10-19T15:36:28.656Z,16.40
2018-10-19T15:38:57.130Z,16.03
2018-10-19T15:41:25.625Z,16.90
2018-10-19T15:43:54.050Z,17.00
2018-10-19T15:46:22.751Z,16.50
2018-10-19T15:48:51.188Z,16.50
2018-10-19T15:51:19.604Z,16.00
2018-10-19T15:53:48.025Z,16.17
2018-10-19T15:56:16.426Z,15.17
2018-10-19T15:58:44.853Z,16.00
2018-10-19T16:01:13.258Z,15.17
2018-10-19T16:03:41.709Z,15.30
2018-10-19T16:06:10.215Z,15.60
2018-10-19T16:08:38.555Z,16.27
2018-10-19T16:11:07.231Z,16.30
2018-10-19T16:13:35.762Z,16.60
2018-10-19T16:16:04.221Z,15.20
2018-10-19T16:18:32.755Z,14.93
2018-10-19T16:21:01.317Z,14.63
2018-10-19T16:23:29.851Z,14.90
2018-10-19T16:25:58.912Z,15.20
2018-10-19T16:28:27.521Z,16.23
2018-10-19T16:30:56.061Z,16.80
2018-10-19T16:33:24.562Z,17.60
2018-10-19T16:35:53.283Z,16.43
2018-10-19T16:38:23.076Z,15.97
2018-10-19T16:40:51.678Z,16.53
2018-10-19T16:43:20.659Z,17.60
2018-10-19T16:45:49.655Z,18.30
2018-10-19T16:48:18.091Z,18.17
2018-10-19T16:50:46.554Z,18.70
2018-10-19T16:53:14.977Z,18.17
2018-10-19T16:55:43.430Z,18.43
2018-10-19T16:58:11.894Z,18.30
2018-10-19T17:00:40.580Z,19.27
2018-10-19T17:03:09.132Z,18.40
2018-10-19T17:05:38.254Z,19.87
2018-10-19T17:08:06.832Z,19.60
2018-10-19T17:10:35.383Z,17.80
2018-10-19T17:13:04.526Z,17.27
2018-10-19T17:15:33.145Z,17.37
2018-10-19T17:18:01.674Z,19.23
2018-10-19T17:20:30.210Z,18.50
2018-10-19T17:22:58.658Z,19.00
2018-10-19T17:25:27.193Z,19.43
2018-10-19T17:27:55.582Z,17.83
2018-10-19T17:30:24.064Z,18.67
2018-10-19T17:32:52.617Z,19.27
2018-10-19T17:35:21.014Z,20.03
2018-10-19T17:37:49.489Z,20.23
2018-10-19T17:40:18.864Z,21.07
2018-10-19T17:42:47.360Z,21.90
2018-10-19T17:45:15.857Z,21.17
2018-10-19T17:47:44.301Z,21.50
2018-10-19T17:50:12.918Z,20.30
2018-10-19T17:52:41.369Z,19.27
2018-10-19T17:55:11.151Z,20.30
2018-10-19T17:57:40.119Z,20.03
2018-10-19T18:00:10.371Z,20.27
2018-10-19T18:02:38.821Z,21.63
2018-10-19T18:05:07.760Z,21.83
2018-10-19T18:07:36.269Z,21.77
2018-10-19T18:10:04.875Z,20.40
2018-10-19T18:12:33.940Z,20.67
2018-10-19T18:15:02.450Z,20.90
2018-10-19T18:17:31.251Z,20.93
2018-10-19T18:19:59.715Z,22.57
2018-10-19T18:22:28.201Z,23.03
2018-10-19T18:24:56.857Z,22.37
2018-10-19T18:27:25.397Z,21.53
2018-10-19T18:29:53.883Z,23.77
2018-10-19T18:32:22.313Z,25.50
2018-10-19T18:34:50.758Z,24.37
2018-10-19T18:37:19.157Z,23.97
2018-10-19T18:39:47.570Z,24.77
2018-10-19T18:42:16.293Z,25.43
2018-10-19T18:44:44.846Z,25.87
2018-10-19T18:47:13.820Z,27.57
2018-10-19T18:49:42.230Z,28.83
2018-10-19T18:52:11.528Z,26.60
2018-10-19T18:54:40.016Z,27.80
2018-10-19T18:57:08.462Z,28.60
2018-10-19T18:59:36.886Z,26.73
2018-10-19T19:02:05.583Z,27.80
2018-10-19T19:04:33.967Z,26.67
2018-10-19T19:07:09.019Z,26.40
2018-10-19T19:09:37.530Z,26.43
2018-10-19T19:12:07.730Z,27.20
2018-10-19T19:14:36.292Z,25.90
2018-10-19T19:17:08.180Z,28.43
2018-10-19T19:19:36.944Z,27.70
2018-10-19T19:22:05.509Z,26.37
2018-10-19T19:24:54.573Z,26.27
2018-10-19T19:27:25.399Z,26.17
2018-10-19T19:30:02.482Z,27.50
2018-10-19T19:32:31.019Z,27.30
2018-10-19T19:34:59.514Z,28.13
2018-10-19T19:37:28.525Z,29.47
2018-10-19T19:40:01.740Z,28.70
2018-10-19T19:42:41.128Z,26.90
2018-10-19T19:45:09.574Z,27.33
2018-10-19T19:47:43.249Z,27.53
2018-10-19T19:50:12.483Z,27.40
2018-10-19T19:52:40.841Z,28.07
2018-10-19T19:55:09.325Z,26.70
2018-10-19T19:57:37.815Z,27.00
2018-10-19T20:00:06.674Z,27.37
2018-10-19T20:02:35.153Z,25.93
2018-10-19T20:05:04.041Z,25.73
2018-10-19T20:07:32.429Z,26.63
2018-10-19T20:10:00.999Z,29.20
2018-10-19T20:12:29.489Z,28.73
2018-10-19T20:14:57.972Z,26.80
2018-10-19T20:17:26.421Z,27.13
2018-10-19T20:19:54.916Z,27.80
2018-10-19T20:22:23.354Z,26.77
2018-10-19T20:24:51.898Z,26.23
2018-10-19T20:27:21.234Z,26.97
2018-10-19T20:29:51.123Z,25.47
2018-10-19T20:32:19.816Z,23.87
2018-10-19T20:34:50.660Z,23.20
2018-10-19T20:37:21.823Z,22.53
2018-10-19T20:39:52.020Z,22.20
2018-10-19T20:42:20.574Z,22.13
2018-10-19T20:44:49.034Z,23.90
2018-10-19T20:47:17.573Z,23.80
2018-10-19T20:49:49.048Z,24.73
2018-10-19T20:52:17.680Z,22.93
2018-10-19T20:54:46.142Z,24.50
2018-10-19T20:57:14.718Z,24.73
2018-10-19T20:59:43.162Z,26.57
2018-10-19T21:02:11.613Z,24.87
2018-10-19T21:04:40.070Z,25.53
2018-10-19T21:07:08.557Z,24.60
2018-10-19T21:09:37.042Z,27.03
2018-10-19T21:12:05.742Z,28.33
2018-10-19T21:14:34.150Z,28.53
2018-10-19T21:17:02.644Z,27.43
2018-10-19T21:19:31.152Z,26.63
2018-10-19T21:21:59.635Z,28.70
2018-10-19T21:24:28.245Z,29.40
2018-10-19T21:26:56.733Z,27.10
2018-10-19T21:29:25.165Z,28.27
2018-10-19T21:31:53.651Z,27.03
2018-10-19T21:34:22.269Z,27.43
2018-10-19T21:36:50.754Z,26.70
2018-10-19T21:39:19.186Z,28.07
2018-10-19T21:41:47.694Z,28.53
2018-10-19T21:44:16.182Z,27.90
2018-10-19T21:46:44.601Z,27.53
2018-10-19T21:49:13.075Z,28.20
2018-10-19T21:51:41.541Z,28.77
2018-10-19T21:54:09.974Z,28.67
2018-10-19T21:56:38.430Z,28.30
2018-10-19T21:59:06.889Z,28.53
2018-10-19T22:01:36.309Z,28.47
2018-10-19T22:04:04.757Z,29.27
2018-10-19T22:06:33.207Z,27.63
2018-10-19T22:09:01.690Z,26.47
2018-10-19T22:11:30.230Z,26.97
2018-10-19T22:13:58.790Z,26.97
2018-10-19T22:16:27.308Z,30.93
2018-10-19T22:18:55.788Z,30.50
2018-10-19T22:21:24.266Z,31.10
2018-10-19T22:23:56.589Z,30.37
2018-10-19T22:26:25.106Z,28.40
2018-10-19T22:28:54.172Z,28.57
2018-10-19T22:31:23.605Z,32.20
2018-10-19T22:33:52.103Z,28.90
2018-10-19T22:36:20.604Z,30.67
2018-10-19T22:38:49.326Z,32.03
2018-10-19T22:41:17.899Z,31.40
2018-10-19T22:43:46.274Z,33.23
2018-10-19T22:46:14.764Z,32.73
2018-10-19T22:48:43.209Z,33.30
2018-10-19T22:51:14.721Z,32.37
2018-10-19T22:53:43.196Z,31.93
2018-10-19T22:56:11.729Z,33.43
2018-10-19T22:58:40.182Z,34.13
2018-10-19T23:01:08.739Z,33.67
2018-10-19T23:03:37.140Z,32.23
2018-10-19T23:06:05.606Z,31.00
2018-10-19T23:08:34.059Z,30.63
2018-10-19T23:11:02.569Z,29.37
2018-10-19T23:13:30.963Z,27.47
2018-10-19T23:15:59.436Z,28.20
2018-10-19T23:18:27.935Z,29.73
2018-10-19T23:20:56.381Z,28.63
2018-10-19T23:23:24.861Z,29.97
2018-10-19T23:25:53.282Z,29.57
2018-10-19T23:28:21.723Z,30.67
2018-10-19T23:30:50.166Z,32.10
2018-10-19T23:33:18.595Z,31.77
2018-10-19T23:35:47.010Z,32.53
2018-10-19T23:38:15.537Z,33.13
2018-10-19T23:40:43.960Z,34.10
2018-10-19T23:43:12.578Z,33.83
2018-10-19T23:45:40.986Z,34.53
2018-10-19T23:48:09.433Z,34.00
2018-10-19T23:50:37.873Z,32.40
2018-10-19T23:53:06.479Z,30.63
2018-10-19T23:55:34.917Z,32.57
2018-10-19T23:58:03.630Z,30.77
